Uvalda, Georgia
Current Conditions -  °F | °C
As of 5:35 PM on Tuesday 21 Oct 2014 (Local Time) from KAZE Reporting Station
Clear Clear  
Wind Chill: 81°   Ceiling: Unl
Heat Index: 81°   Visibility: 10mi
Dew Point: 52°   Wind: 0mph
Humidity: 37%   Direction: NA
Pressure: 29.9"   Gusts: NA
Location:  32.04°N, 82.51°W
Report Text: KAZE 212135Z AUTO 00000KT 10SM CLR 27/11 A2990 RMK AO2 T02700112
Loading
Personal Weather Stations






























Interactive Weather Map
Tropical Storm Tracking
New forecast layout! Learn more

10-Day Weather Forecast

Advertisements
Track Severe Weather on mobile